Terminal Aerodrome Forecast
Issued by NWS Central Illinois

Home | Current Version | Previous Version | Text Only | Print | Product List | Glossary On
Versions: 1 2 3 4 5 6 7 8 9 10 11 12 13 14 15 16 17 18 19 20 21 22 23 24
000
FTUS43 KILX 251023 AAC
TAFPIA
TAF AMD
KPIA 251023Z 2510/2606 18006KT P6SM FEW035
     FM251200 18005KT 5SM BR SCT015 BKN250
     FM251400 36008KT P6SM SCT040=

USA.gov is the U.S. government's official web portal to all federal, state and local government web resources and services.